sensor_id;sensor_type;location;lat;lon;timestamp;temperature;humidity
16513;DHT22;8369;48.030;11.598;2022-10-16T00:01:14;12.40;99.90
16513;DHT22;8369;48.030;11.598;2022-10-16T00:03:42;12.40;99.90
16513;DHT22;8369;48.030;11.598;2022-10-16T00:06:09;12.40;99.90
16513;DHT22;8369;48.030;11.598;2022-10-16T00:08:36;12.30;99.90
16513;DHT22;8369;48.030;11.598;2022-10-16T00:11:11;12.30;99.90
16513;DHT22;8369;48.030;11.598;2022-10-16T00:13:39;12.30;99.90
16513;DHT22;8369;48.030;11.598;2022-10-16T00:16:09;12.30;99.90
16513;DHT22;8369;48.030;11.598;2022-10-16T00:18:35;12.20;99.90
16513;DHT22;8369;48.030;11.598;2022-10-16T00:21:07;12.20;99.90
16513;DHT22;8369;48.030;11.598;2022-10-16T00:23:34;12.20;99.90
16513;DHT22;8369;48.030;11.598;2022-10-16T00:26:06;12.20;99.90
16513;DHT22;8369;48.030;11.598;2022-10-16T00:28:32;12.20;99.90
16513;DHT22;8369;48.030;11.598;2022-10-16T00:31:02;12.20;99.90
16513;DHT22;8369;48.030;11.598;2022-10-16T00:33:28;12.10;99.90
16513;DHT22;8369;48.030;11.598;2022-10-16T00:35:53;12.10;99.90
16513;DHT22;8369;48.030;11.598;2022-10-16T00:38:19;12.10;99.90
16513;DHT22;8369;48.030;11.598;2022-10-16T00:40:45;12.00;99.90
16513;DHT22;8369;48.030;11.598;2022-10-16T00:43:42;12.00;99.90
16513;DHT22;8369;48.030;11.598;2022-10-16T00:51:35;12.00;99.90
16513;DHT22;8369;48.030;11.598;2022-10-16T00:54:03;12.00;99.90
16513;DHT22;8369;48.030;11.598;2022-10-16T00:56:29;11.90;99.90
16513;DHT22;8369;48.030;11.598;2022-10-16T00:58:55;12.00;99.90
16513;DHT22;8369;48.030;11.598;2022-10-16T01:01:21;11.90;99.90
16513;DHT22;8369;48.030;11.598;2022-10-16T01:03:48;11.90;99.90
16513;DHT22;8369;48.030;11.598;2022-10-16T01:06:25;11.90;99.90
16513;DHT22;8369;48.030;11.598;2022-10-16T01:09:14;11.90;99.90
16513;DHT22;8369;48.030;11.598;2022-10-16T01:11:49;11.90;99.90
16513;DHT22;8369;48.030;11.598;2022-10-16T01:17:37;11.90;99.90
16513;DHT22;8369;48.030;11.598;2022-10-16T01:20:20;11.90;99.90
16513;DHT22;8369;48.030;11.598;2022-10-16T01:23:19;11.90;99.90
16513;DHT22;8369;48.030;11.598;2022-10-16T01:28:39;11.90;99.90
16513;DHT22;8369;48.030;11.598;2022-10-16T01:31:09;11.90;99.90
16513;DHT22;8369;48.030;11.598;2022-10-16T01:33:46;11.90;99.90
16513;DHT22;8369;48.030;11.598;2022-10-16T01:36:26;11.90;99.90
16513;DHT22;8369;48.030;11.598;2022-10-16T01:39:00;11.90;99.90
16513;DHT22;8369;48.030;11.598;2022-10-16T01:42:01;11.80;99.90
16513;DHT22;8369;48.030;11.598;2022-10-16T01:44:31;11.80;99.90
16513;DHT22;8369;48.030;11.598;2022-10-16T01:46:58;11.80;99.90
16513;DHT22;8369;48.030;11.598;2022-10-16T01:49:31;11.80;99.90
16513;DHT22;8369;48.030;11.598;2022-10-16T01:51:59;11.80;99.90
16513;DHT22;8369;48.030;11.598;2022-10-16T01:54:27;11.80;99.90
16513;DHT22;8369;48.030;11.598;2022-10-16T01:56:55;11.80;99.90
16513;DHT22;8369;48.030;11.598;2022-10-16T01:59:25;11.80;99.90
16513;DHT22;8369;48.030;11.598;2022-10-16T02:01:57;11.80;99.90
16513;DHT22;8369;48.030;11.598;2022-10-16T02:04:51;11.70;99.90
16513;DHT22;8369;48.030;11.598;2022-10-16T02:07:15;11.70;99.90
16513;DHT22;8369;48.030;11.598;2022-10-16T02:09:41;11.70;99.90
16513;DHT22;8369;48.030;11.598;2022-10-16T02:12:28;11.70;99.90
16513;DHT22;8369;48.030;11.598;2022-10-16T02:14:56;11.60;99.90
16513;DHT22;8369;48.030;11.598;2022-10-16T02:17:22;11.60;99.90
16513;DHT22;8369;48.030;11.598;2022-10-16T02:19:50;11.60;99.90
16513;DHT22;8369;48.030;11.598;2022-10-16T02:22:35;11.60;99.90
16513;DHT22;8369;48.030;11.598;2022-10-16T02:25:34;11.60;99.90
16513;DHT22;8369;48.030;11.598;2022-10-16T02:28:40;11.60;99.90
16513;DHT22;8369;48.030;11.598;2022-10-16T02:31:11;11.60;99.90
16513;DHT22;8369;48.030;11.598;2022-10-16T02:33:40;11.60;99.90
16513;DHT22;8369;48.030;11.598;2022-10-16T02:36:08;11.50;99.90
16513;DHT22;8369;48.030;11.598;2022-10-16T02:38:34;11.50;99.90
16513;DHT22;8369;48.030;11.598;2022-10-16T02:41:00;11.50;99.90
16513;DHT22;8369;48.030;11.598;2022-10-16T02:43:26;11.50;99.90
16513;DHT22;8369;48.030;11.598;2022-10-16T02:45:52;11.50;99.90
16513;DHT22;8369;48.030;11.598;2022-10-16T02:48:18;11.50;99.90
16513;DHT22;8369;48.030;11.598;2022-10-16T02:50:44;11.40;99.90
16513;DHT22;8369;48.030;11.598;2022-10-16T02:53:10;11.40;99.90
16513;DHT22;8369;48.030;11.598;2022-10-16T02:55:36;11.40;99.90
16513;DHT22;8369;48.030;11.598;2022-10-16T02:58:02;11.40;99.90
16513;DHT22;8369;48.030;11.598;2022-10-16T03:00:28;11.40;99.90
16513;DHT22;8369;48.030;11.598;2022-10-16T03:02:54;11.40;99.90
16513;DHT22;8369;48.030;11.598;2022-10-16T03:05:20;11.30;99.90
16513;DHT22;8369;48.030;11.598;2022-10-16T03:07:46;11.30;99.90
16513;DHT22;8369;48.030;11.598;2022-10-16T03:10:12;11.30;99.90
16513;DHT22;8369;48.030;11.598;2022-10-16T03:12:38;11.30;99.90
16513;DHT22;8369;48.030;11.598;2022-10-16T03:15:04;11.30;99.90
16513;DHT22;8369;48.030;11.598;2022-10-16T03:17:31;11.30;99.90
16513;DHT22;8369;48.030;11.598;2022-10-16T03:19:57;11.30;99.90
16513;DHT22;8369;48.030;11.598;2022-10-16T03:22:27;11.30;99.90
16513;DHT22;8369;48.030;11.598;2022-10-16T03:24:53;11.20;99.90
16513;DHT22;8369;48.030;11.598;2022-10-16T03:27:18;11.20;99.90
16513;DHT22;8369;48.030;11.598;2022-10-16T03:29:44;11.20;99.90
16513;DHT22;8369;48.030;11.598;2022-10-16T03:32:10;11.20;99.90
16513;DHT22;8369;48.030;11.598;2022-10-16T03:34:36;11.20;99.90
16513;DHT22;8369;48.030;11.598;2022-10-16T03:37:02;11.20;99.90
16513;DHT22;8369;48.030;11.598;2022-10-16T03:39:28;11.20;99.90
16513;DHT22;8369;48.030;11.598;2022-10-16T03:41:54;11.20;99.90
16513;DHT22;8369;48.030;11.598;2022-10-16T03:44:20;11.20;99.90
16513;DHT22;8369;48.030;11.598;2022-10-16T03:46:46;11.20;99.90
16513;DHT22;8369;48.030;11.598;2022-10-16T03:49:15;11.20;99.90
16513;DHT22;8369;48.030;11.598;2022-10-16T03:51:41;11.20;99.90
16513;DHT22;8369;48.030;11.598;2022-10-16T03:54:07;11.20;99.90
16513;DHT22;8369;48.030;11.598;2022-10-16T03:56:32;11.20;99.90
16513;DHT22;8369;48.030;11.598;2022-10-16T03:58:58;11.20;99.90
16513;DHT22;8369;48.030;11.598;2022-10-16T04:01:24;11.30;99.90
16513;DHT22;8369;48.030;11.598;2022-10-16T04:03:50;11.30;99.90
16513;DHT22;8369;48.030;11.598;2022-10-16T04:06:16;11.30;99.90
16513;DHT22;8369;48.030;11.598;2022-10-16T04:08:44;11.40;99.90
16513;DHT22;8369;48.030;11.598;2022-10-16T04:11:10;11.40;99.90
16513;DHT22;8369;48.030;11.598;2022-10-16T04:13:37;11.40;99.90
16513;DHT22;8369;48.030;11.598;2022-10-16T04:16:03;11.50;99.90
16513;DHT22;8369;48.030;11.598;2022-10-16T04:18:32;11.50;99.90
16513;DHT22;8369;48.030;11.598;2022-10-16T04:21:05;11.50;99.90
16513;DHT22;8369;48.030;11.598;2022-10-16T04:23:32;11.50;99.90
16513;DHT22;8369;48.030;11.598;2022-10-16T04:25:58;11.60;99.90
16513;DHT22;8369;48.030;11.598;2022-10-16T04:28:24;11.60;99.90
16513;DHT22;8369;48.030;11.598;2022-10-16T04:30:50;11.60;99.90
16513;DHT22;8369;48.030;11.598;2022-10-16T04:33:16;11.70;99.90
16513;DHT22;8369;48.030;11.598;2022-10-16T04:35:42;11.70;99.90
16513;DHT22;8369;48.030;11.598;2022-10-16T04:38:08;11.70;99.90
16513;DHT22;8369;48.030;11.598;2022-10-16T04:40:34;11.70;99.90
16513;DHT22;8369;48.030;11.598;2022-10-16T04:43:03;11.80;99.90
16513;DHT22;8369;48.030;11.598;2022-10-16T04:45:29;11.80;99.90
16513;DHT22;8369;48.030;11.598;2022-10-16T04:47:59;11.80;99.90
16513;DHT22;8369;48.030;11.598;2022-10-16T04:50:26;11.80;99.90
16513;DHT22;8369;48.030;11.598;2022-10-16T04:52:52;11.80;99.90
16513;DHT22;8369;48.030;11.598;2022-10-16T04:55:18;11.80;99.90
16513;DHT22;8369;48.030;11.598;2022-10-16T04:57:44;11.80;99.90
16513;DHT22;8369;48.030;11.598;2022-10-16T05:00:10;11.80;99.90
16513;DHT22;8369;48.030;11.598;2022-10-16T05:02:37;11.90;99.90
16513;DHT22;8369;48.030;11.598;2022-10-16T05:05:03;11.90;99.90
16513;DHT22;8369;48.030;11.598;2022-10-16T05:07:29;11.90;99.90
16513;DHT22;8369;48.030;11.598;2022-10-16T05:09:55;11.90;99.90
16513;DHT22;8369;48.030;11.598;2022-10-16T05:12:21;11.90;99.90
16513;DHT22;8369;48.030;11.598;2022-10-16T05:14:47;11.90;99.90
16513;DHT22;8369;48.030;11.598;2022-10-16T05:17:13;11.90;99.90
16513;DHT22;8369;48.030;11.598;2022-10-16T05:19:40;11.90;99.90
16513;DHT22;8369;48.030;11.598;2022-10-16T05:22:06;12.00;99.90
16513;DHT22;8369;48.030;11.598;2022-10-16T05:24:32;11.90;99.90
16513;DHT22;8369;48.030;11.598;2022-10-16T05:26:58;12.00;99.90
16513;DHT22;8369;48.030;11.598;2022-10-16T05:29:24;12.00;99.90
16513;DHT22;8369;48.030;11.598;2022-10-16T05:31:52;12.00;99.90
16513;DHT22;8369;48.030;11.598;2022-10-16T05:34:19;12.00;99.90
16513;DHT22;8369;48.030;11.598;2022-10-16T05:36:45;12.00;99.90
16513;DHT22;8369;48.030;11.598;2022-10-16T05:39:11;12.00;99.90
16513;DHT22;8369;48.030;11.598;2022-10-16T05:41:39;12.00;99.90
16513;DHT22;8369;48.030;11.598;2022-10-16T05:44:05;12.00;99.90
16513;DHT22;8369;48.030;11.598;2022-10-16T05:46:32;12.00;99.90
16513;DHT22;8369;48.030;11.598;2022-10-16T05:48:58;12.00;99.90
16513;DHT22;8369;48.030;11.598;2022-10-16T05:51:24;12.00;99.90
16513;DHT22;8369;48.030;11.598;2022-10-16T05:53:52;12.00;99.90
16513;DHT22;8369;48.030;11.598;2022-10-16T05:56:18;12.00;99.90
16513;DHT22;8369;48.030;11.598;2022-10-16T05:58:45;12.00;99.90
16513;DHT22;8369;48.030;11.598;2022-10-16T06:01:16;12.00;99.90
16513;DHT22;8369;48.030;11.598;2022-10-16T06:03:42;12.00;99.90
16513;DHT22;8369;48.030;11.598;2022-10-16T06:06:13;12.00;99.90
16513;DHT22;8369;48.030;11.598;2022-10-16T06:08:40;12.00;99.90
16513;DHT22;8369;48.030;11.598;2022-10-16T06:11:09;12.00;99.90
16513;DHT22;8369;48.030;11.598;2022-10-16T06:13:35;12.00;99.90
16513;DHT22;8369;48.030;11.598;2022-10-16T06:16:02;12.10;99.90
16513;DHT22;8369;48.030;11.598;2022-10-16T06:18:29;12.10;99.90
16513;DHT22;8369;48.030;11.598;2022-10-16T06:20:56;12.10;99.90
16513;DHT22;8369;48.030;11.598;2022-10-16T06:23:23;12.20;99.90
16513;DHT22;8369;48.030;11.598;2022-10-16T06:25:49;12.20;99.90
16513;DHT22;8369;48.030;11.598;2022-10-16T06:28:15;12.20;99.90
16513;DHT22;8369;48.030;11.598;2022-10-16T06:30:42;12.30;99.90
16513;DHT22;8369;48.030;11.598;2022-10-16T06:33:12;12.30;99.90
16513;DHT22;8369;48.030;11.598;2022-10-16T06:35:38;12.40;99.90
16513;DHT22;8369;48.030;11.598;2022-10-16T06:38:05;12.40;99.90
16513;DHT22;8369;48.030;11.598;2022-10-16T06:40:31;12.50;99.90
16513;DHT22;8369;48.030;11.598;2022-10-16T06:42:57;12.50;99.90
16513;DHT22;8369;48.030;11.598;2022-10-16T06:45:23;12.50;99.90
16513;DHT22;8369;48.030;11.598;2022-10-16T06:47:50;12.60;99.90
16513;DHT22;8369;48.030;11.598;2022-10-16T06:50:15;12.60;99.90
16513;DHT22;8369;48.030;11.598;2022-10-16T06:52:42;12.60;99.90
16513;DHT22;8369;48.030;11.598;2022-10-16T06:55:08;12.70;99.90
16513;DHT22;8369;48.030;11.598;2022-10-16T06:57:34;12.70;99.90
16513;DHT22;8369;48.030;11.598;2022-10-16T07:00:00;12.80;99.90
16513;DHT22;8369;48.030;11.598;2022-10-16T07:02:26;12.80;99.90
16513;DHT22;8369;48.030;11.598;2022-10-16T07:04:52;12.90;99.90
16513;DHT22;8369;48.030;11.598;2022-10-16T07:07:17;12.90;99.90
16513;DHT22;8369;48.030;11.598;2022-10-16T07:09:43;13.00;99.90
16513;DHT22;8369;48.030;11.598;2022-10-16T07:12:09;13.00;99.90
16513;DHT22;8369;48.030;11.598;2022-10-16T07:14:35;13.10;99.90
16513;DHT22;8369;48.030;11.598;2022-10-16T07:17:02;13.20;99.90
16513;DHT22;8369;48.030;11.598;2022-10-16T07:19:28;13.30;99.90
16513;DHT22;8369;48.030;11.598;2022-10-16T07:21:54;13.40;99.90
16513;DHT22;8369;48.030;11.598;2022-10-16T07:24:20;13.50;99.90
16513;DHT22;8369;48.030;11.598;2022-10-16T07:26:46;13.60;99.90
16513;DHT22;8369;48.030;11.598;2022-10-16T07:29:22;13.70;99.90
16513;DHT22;8369;48.030;11.598;2022-10-16T07:31:49;13.90;99.90
16513;DHT22;8369;48.030;11.598;2022-10-16T07:34:17;14.00;99.90
16513;DHT22;8369;48.030;11.598;2022-10-16T07:36:43;14.20;99.90
16513;DHT22;8369;48.030;11.598;2022-10-16T07:39:09;14.30;99.90
16513;DHT22;8369;48.030;11.598;2022-10-16T07:41:35;14.40;99.90
16513;DHT22;8369;48.030;11.598;2022-10-16T07:44:12;14.60;99.90
16513;DHT22;8369;48.030;11.598;2022-10-16T07:46:38;14.70;99.90
16513;DHT22;8369;48.030;11.598;2022-10-16T07:49:04;14.90;99.90
16513;DHT22;8369;48.030;11.598;2022-10-16T07:51:48;15.00;99.90
16513;DHT22;8369;48.030;11.598;2022-10-16T07:54:14;15.10;99.90
16513;DHT22;8369;48.030;11.598;2022-10-16T07:56:39;15.10;99.90
16513;DHT22;8369;48.030;11.598;2022-10-16T07:59:05;15.20;99.90
16513;DHT22;8369;48.030;11.598;2022-10-16T08:01:31;15.30;99.90
16513;DHT22;8369;48.030;11.598;2022-10-16T08:03:57;15.40;99.90
16513;DHT22;8369;48.030;11.598;2022-10-16T08:06:23;15.50;99.90
16513;DHT22;8369;48.030;11.598;2022-10-16T08:08:49;15.60;99.90
16513;DHT22;8369;48.030;11.598;2022-10-16T08:11:18;15.70;99.90
16513;DHT22;8369;48.030;11.598;2022-10-16T08:13:46;15.80;99.90
16513;DHT22;8369;48.030;11.598;2022-10-16T08:16:12;15.90;99.90
16513;DHT22;8369;48.030;11.598;2022-10-16T08:18:41;16.00;99.90
16513;DHT22;8369;48.030;11.598;2022-10-16T08:21:33;16.10;99.90
16513;DHT22;8369;48.030;11.598;2022-10-16T08:24:08;16.20;99.90
16513;DHT22;8369;48.030;11.598;2022-10-16T08:26:34;16.30;99.90
16513;DHT22;8369;48.030;11.598;2022-10-16T08:29:00;16.40;99.90
16513;DHT22;8369;48.030;11.598;2022-10-16T08:31:26;16.50;99.90
16513;DHT22;8369;48.030;11.598;2022-10-16T08:33:53;16.60;99.90
16513;DHT22;8369;48.030;11.598;2022-10-16T08:36:18;16.70;99.90
16513;DHT22;8369;48.030;11.598;2022-10-16T08:38:47;16.80;99.90
16513;DHT22;8369;48.030;11.598;2022-10-16T08:41:59;16.90;99.90
16513;DHT22;8369;48.030;11.598;2022-10-16T08:45:31;16.90;99.90
16513;DHT22;8369;48.030;11.598;2022-10-16T08:50:13;17.20;99.90
16513;DHT22;8369;48.030;11.598;2022-10-16T08:52:43;17.20;99.90
16513;DHT22;8369;48.030;11.598;2022-10-16T08:57:55;17.40;99.90
16513;DHT22;8369;48.030;11.598;2022-10-16T09:00:22;17.50;99.90
16513;DHT22;8369;48.030;11.598;2022-10-16T09:05:42;17.70;99.90
16513;DHT22;8369;48.030;11.598;2022-10-16T09:08:28;17.80;99.90
16513;DHT22;8369;48.030;11.598;2022-10-16T09:13:49;18.00;99.90
16513;DHT22;8369;48.030;11.598;2022-10-16T09:21:23;18.30;99.90
16513;DHT22;8369;48.030;11.598;2022-10-16T09:23:50;18.40;99.90
16513;DHT22;8369;48.030;11.598;2022-10-16T09:26:17;18.50;99.90
16513;DHT22;8369;48.030;11.598;2022-10-16T09:28:45;18.50;99.90
16513;DHT22;8369;48.030;11.598;2022-10-16T09:31:16;18.60;99.90
16513;DHT22;8369;48.030;11.598;2022-10-16T09:33:44;18.70;99.90
16513;DHT22;8369;48.030;11.598;2022-10-16T09:36:12;18.70;99.90
16513;DHT22;8369;48.030;11.598;2022-10-16T09:38:38;18.80;99.90
16513;DHT22;8369;48.030;11.598;2022-10-16T09:41:21;18.80;99.90
16513;DHT22;8369;48.030;11.598;2022-10-16T09:44:01;19.00;99.90
16513;DHT22;8369;48.030;11.598;2022-10-16T09:46:36;19.00;99.90
16513;DHT22;8369;48.030;11.598;2022-10-16T09:49:19;19.10;99.90
16513;DHT22;8369;48.030;11.598;2022-10-16T09:51:45;19.20;99.90
16513;DHT22;8369;48.030;11.598;2022-10-16T09:54:15;19.20;99.90
16513;DHT22;8369;48.030;11.598;2022-10-16T09:56:42;19.30;99.90
16513;DHT22;8369;48.030;11.598;2022-10-16T09:59:16;19.40;99.90
16513;DHT22;8369;48.030;11.598;2022-10-16T10:04:13;19.50;99.90
16513;DHT22;8369;48.030;11.598;2022-10-16T10:06:48;19.50;99.90
16513;DHT22;8369;48.030;11.598;2022-10-16T10:14:30;19.70;99.90
16513;DHT22;8369;48.030;11.598;2022-10-16T10:22:40;19.90;99.90
16513;DHT22;8369;48.030;11.598;2022-10-16T10:36:02;20.30;99.90
16513;DHT22;8369;48.030;11.598;2022-10-16T10:46:38;20.60;99.90
16513;DHT22;8369;48.030;11.598;2022-10-16T10:54:45;20.80;99.30
16513;DHT22;8369;48.030;11.598;2022-10-16T10:57:41;20.90;99.90
16513;DHT22;8369;48.030;11.598;2022-10-16T11:00:30;20.90;99.10
16513;DHT22;8369;48.030;11.598;2022-10-16T11:06:18;21.10;97.00
16513;DHT22;8369;48.030;11.598;2022-10-16T11:14:16;21.20;99.60
16513;DHT22;8369;48.030;11.598;2022-10-16T11:19:37;21.30;93.70
16513;DHT22;8369;48.030;11.598;2022-10-16T11:25:19;21.40;95.30
16513;DHT22;8369;48.030;11.598;2022-10-16T11:30:25;21.50;90.90
16513;DHT22;8369;48.030;11.598;2022-10-16T11:41:50;21.80;93.00
16513;DHT22;8369;48.030;11.598;2022-10-16T11:44:44;21.70;94.30
16513;DHT22;8369;48.030;11.598;2022-10-16T11:47:34;21.70;89.80
16513;DHT22;8369;48.030;11.598;2022-10-16T11:50:22;21.80;86.30
16513;DHT22;8369;48.030;11.598;2022-10-16T11:53:03;21.80;90.20
16513;DHT22;8369;48.030;11.598;2022-10-16T11:55:39;21.80;86.60
16513;DHT22;8369;48.030;11.598;2022-10-16T11:58:35;21.90;85.00
16513;DHT22;8369;48.030;11.598;2022-10-16T12:01:41;22.00;85.00
16513;DHT22;8369;48.030;11.598;2022-10-16T12:07:18;22.10;85.10
16513;DHT22;8369;48.030;11.598;2022-10-16T12:09:47;22.10;81.60
16513;DHT22;8369;48.030;11.598;2022-10-16T12:17:37;22.20;82.80
16513;DHT22;8369;48.030;11.598;2022-10-16T12:25:37;22.20;85.00
16513;DHT22;8369;48.030;11.598;2022-10-16T12:30:42;22.20;88.00
16513;DHT22;8369;48.030;11.598;2022-10-16T12:36:51;22.20;85.90
16513;DHT22;8369;48.030;11.598;2022-10-16T12:39:24;22.20;87.10
16513;DHT22;8369;48.030;11.598;2022-10-16T12:42:02;22.10;89.10
16513;DHT22;8369;48.030;11.598;2022-10-16T12:44:35;22.20;86.90
16513;DHT22;8369;48.030;11.598;2022-10-16T12:47:18;22.10;87.90
16513;DHT22;8369;48.030;11.598;2022-10-16T12:49:52;22.10;89.50
16513;DHT22;8369;48.030;11.598;2022-10-16T12:52:38;22.10;90.50
16513;DHT22;8369;48.030;11.598;2022-10-16T12:55:23;22.20;86.30
16513;DHT22;8369;48.030;11.598;2022-10-16T12:58:01;22.10;84.80
16513;DHT22;8369;48.030;11.598;2022-10-16T13:05:58;22.10;81.50
16513;DHT22;8369;48.030;11.598;2022-10-16T13:15:05;22.20;82.70
16513;DHT22;8369;48.030;11.598;2022-10-16T13:17:26;22.10;83.30
16513;DHT22;8369;48.030;11.598;2022-10-16T13:30:29;22.00;85.40
16513;DHT22;8369;48.030;11.598;2022-10-16T13:33:04;22.00;86.90
16513;DHT22;8369;48.030;11.598;2022-10-16T13:35:35;22.00;86.90
16513;DHT22;8369;48.030;11.598;2022-10-16T13:38:08;22.00;85.10
16513;DHT22;8369;48.030;11.598;2022-10-16T13:40:36;21.90;85.70
16513;DHT22;8369;48.030;11.598;2022-10-16T13:43:03;21.90;85.10
16513;DHT22;8369;48.030;11.598;2022-10-16T13:45:29;21.90;86.20
16513;DHT22;8369;48.030;11.598;2022-10-16T13:48:06;22.00;85.30
16513;DHT22;8369;48.030;11.598;2022-10-16T13:50:35;22.00;85.70
16513;DHT22;8369;48.030;11.598;2022-10-16T13:53:07;21.90;86.80
16513;DHT22;8369;48.030;11.598;2022-10-16T13:55:38;21.90;86.60
16513;DHT22;8369;48.030;11.598;2022-10-16T13:58:16;22.00;85.90
16513;DHT22;8369;48.030;11.598;2022-10-16T14:01:22;22.00;83.40
16513;DHT22;8369;48.030;11.598;2022-10-16T14:03:50;21.90;85.00
16513;DHT22;8369;48.030;11.598;2022-10-16T14:06:21;21.90;86.00
16513;DHT22;8369;48.030;11.598;2022-10-16T14:09:00;21.90;86.30
16513;DHT22;8369;48.030;11.598;2022-10-16T14:11:30;21.90;85.30
16513;DHT22;8369;48.030;11.598;2022-10-16T14:13:56;21.80;85.30
16513;DHT22;8369;48.030;11.598;2022-10-16T14:16:27;21.80;85.90
16513;DHT22;8369;48.030;11.598;2022-10-16T14:19:24;21.80;85.10
16513;DHT22;8369;48.030;11.598;2022-10-16T14:21:56;21.80;85.70
16513;DHT22;8369;48.030;11.598;2022-10-16T14:24:33;21.80;85.30
16513;DHT22;8369;48.030;11.598;2022-10-16T14:27:02;21.80;85.90
16513;DHT22;8369;48.030;11.598;2022-10-16T14:30:01;21.70;85.70
16513;DHT22;8369;48.030;11.598;2022-10-16T14:32:28;21.70;85.90
16513;DHT22;8369;48.030;11.598;2022-10-16T14:34:56;21.70;85.00
16513;DHT22;8369;48.030;11.598;2022-10-16T14:37:27;21.70;85.60
16513;DHT22;8369;48.030;11.598;2022-10-16T14:39:54;21.70;84.50
16513;DHT22;8369;48.030;11.598;2022-10-16T14:42:25;21.70;85.30
16513;DHT22;8369;48.030;11.598;2022-10-16T14:44:54;21.70;85.30
16513;DHT22;8369;48.030;11.598;2022-10-16T14:47:46;21.60;85.00
16513;DHT22;8369;48.030;11.598;2022-10-16T14:50:14;21.60;85.40
16513;DHT22;8369;48.030;11.598;2022-10-16T14:52:40;21.50;85.00
16513;DHT22;8369;48.030;11.598;2022-10-16T14:55:11;21.50;85.90
16513;DHT22;8369;48.030;11.598;2022-10-16T14:57:38;21.50;87.10
16513;DHT22;8369;48.030;11.598;2022-10-16T15:00:21;21.40;87.40
16513;DHT22;8369;48.030;11.598;2022-10-16T15:02:49;21.40;88.20
16513;DHT22;8369;48.030;11.598;2022-10-16T15:07:44;21.30;90.10
16513;DHT22;8369;48.030;11.598;2022-10-16T15:10:12;21.20;90.50
16513;DHT22;8369;48.030;11.598;2022-10-16T15:12:40;21.10;90.90
16513;DHT22;8369;48.030;11.598;2022-10-16T15:17:50;21.00;91.60
16513;DHT22;8369;48.030;11.598;2022-10-16T15:20:19;20.90;92.50
16513;DHT22;8369;48.030;11.598;2022-10-16T15:22:45;20.80;93.30
16513;DHT22;8369;48.030;11.598;2022-10-16T15:25:41;20.70;94.30
16513;DHT22;8369;48.030;11.598;2022-10-16T15:28:31;20.70;95.20
16513;DHT22;8369;48.030;11.598;2022-10-16T15:30:57;20.50;96.30
16513;DHT22;8369;48.030;11.598;2022-10-16T15:33:29;20.40;97.00
16513;DHT22;8369;48.030;11.598;2022-10-16T15:36:35;20.30;98.00
16513;DHT22;8369;48.030;11.598;2022-10-16T15:39:12;20.20;99.00
16513;DHT22;8369;48.030;11.598;2022-10-16T15:41:50;20.10;99.40
16513;DHT22;8369;48.030;11.598;2022-10-16T15:44:29;20.00;99.90
16513;DHT22;8369;48.030;11.598;2022-10-16T15:47:06;19.90;99.90
16513;DHT22;8369;48.030;11.598;2022-10-16T15:50:00;19.80;99.90
16513;DHT22;8369;48.030;11.598;2022-10-16T15:53:14;19.70;99.90
16513;DHT22;8369;48.030;11.598;2022-10-16T15:55:45;19.60;99.90
16513;DHT22;8369;48.030;11.598;2022-10-16T15:58:14;19.50;99.90
16513;DHT22;8369;48.030;11.598;2022-10-16T16:00:40;19.40;99.90
16513;DHT22;8369;48.030;11.598;2022-10-16T16:03:06;19.30;99.90
16513;DHT22;8369;48.030;11.598;2022-10-16T16:05:32;19.20;99.90
16513;DHT22;8369;48.030;11.598;2022-10-16T16:07:59;19.20;99.90
16513;DHT22;8369;48.030;11.598;2022-10-16T16:10:25;19.10;99.90
16513;DHT22;8369;48.030;11.598;2022-10-16T16:12:50;19.00;99.90
16513;DHT22;8369;48.030;11.598;2022-10-16T16:15:21;18.90;99.90
16513;DHT22;8369;48.030;11.598;2022-10-16T16:17:47;18.90;99.90
16513;DHT22;8369;48.030;11.598;2022-10-16T16:20:13;18.80;99.90
16513;DHT22;8369;48.030;11.598;2022-10-16T16:22:40;18.70;99.90
16513;DHT22;8369;48.030;11.598;2022-10-16T16:25:06;18.60;99.90
16513;DHT22;8369;48.030;11.598;2022-10-16T16:27:32;18.50;99.90
16513;DHT22;8369;48.030;11.598;2022-10-16T16:30:00;18.40;99.90
16513;DHT22;8369;48.030;11.598;2022-10-16T16:32:28;18.40;99.90
16513;DHT22;8369;48.030;11.598;2022-10-16T16:34:54;18.30;99.90
16513;DHT22;8369;48.030;11.598;2022-10-16T16:37:20;18.20;99.90
16513;DHT22;8369;48.030;11.598;2022-10-16T16:39:46;18.10;99.90
16513;DHT22;8369;48.030;11.598;2022-10-16T16:42:12;18.10;99.90
16513;DHT22;8369;48.030;11.598;2022-10-16T16:44:38;18.00;99.90
16513;DHT22;8369;48.030;11.598;2022-10-16T16:47:05;17.90;99.90
16513;DHT22;8369;48.030;11.598;2022-10-16T16:49:31;17.80;99.90
16513;DHT22;8369;48.030;11.598;2022-10-16T16:51:57;17.80;99.90
16513;DHT22;8369;48.030;11.598;2022-10-16T16:54:23;17.70;99.90
16513;DHT22;8369;48.030;11.598;2022-10-16T16:56:49;17.70;99.90
16513;DHT22;8369;48.030;11.598;2022-10-16T16:59:18;17.60;99.90
16513;DHT22;8369;48.030;11.598;2022-10-16T17:01:45;17.50;99.90
16513;DHT22;8369;48.030;11.598;2022-10-16T17:04:12;17.50;99.90
16513;DHT22;8369;48.030;11.598;2022-10-16T17:06:38;17.40;99.90
16513;DHT22;8369;48.030;11.598;2022-10-16T17:09:05;17.30;99.90
16513;DHT22;8369;48.030;11.598;2022-10-16T17:11:33;17.30;99.90
16513;DHT22;8369;48.030;11.598;2022-10-16T17:14:00;17.20;99.90
16513;DHT22;8369;48.030;11.598;2022-10-16T17:16:34;17.20;99.90
16513;DHT22;8369;48.030;11.598;2022-10-16T17:19:09;17.10;99.90
16513;DHT22;8369;48.030;11.598;2022-10-16T17:21:36;17.00;99.90
16513;DHT22;8369;48.030;11.598;2022-10-16T17:24:02;17.00;99.90
16513;DHT22;8369;48.030;11.598;2022-10-16T17:26:29;16.90;99.90
16513;DHT22;8369;48.030;11.598;2022-10-16T17:28:57;16.90;99.90
16513;DHT22;8369;48.030;11.598;2022-10-16T17:31:26;16.80;99.90
16513;DHT22;8369;48.030;11.598;2022-10-16T17:33:53;16.80;99.90
16513;DHT22;8369;48.030;11.598;2022-10-16T17:36:20;16.70;99.90
16513;DHT22;8369;48.030;11.598;2022-10-16T17:38:47;16.70;99.90
16513;DHT22;8369;48.030;11.598;2022-10-16T17:41:18;16.70;99.90
16513;DHT22;8369;48.030;11.598;2022-10-16T17:43:45;16.60;99.90
16513;DHT22;8369;48.030;11.598;2022-10-16T17:46:13;16.60;99.90
16513;DHT22;8369;48.030;11.598;2022-10-16T17:48:42;16.50;99.90
16513;DHT22;8369;48.030;11.598;2022-10-16T17:51:09;16.50;99.90
16513;DHT22;8369;48.030;11.598;2022-10-16T17:53:36;16.40;99.90
16513;DHT22;8369;48.030;11.598;2022-10-16T17:56:04;16.30;99.90
16513;DHT22;8369;48.030;11.598;2022-10-16T17:58:30;16.30;99.90
16513;DHT22;8369;48.030;11.598;2022-10-16T18:00:56;16.20;99.90
16513;DHT22;8369;48.030;11.598;2022-10-16T18:03:22;16.20;99.90
16513;DHT22;8369;48.030;11.598;2022-10-16T18:05:48;16.10;99.90
16513;DHT22;8369;48.030;11.598;2022-10-16T18:08:14;16.10;99.90
16513;DHT22;8369;48.030;11.598;2022-10-16T18:10:48;16.10;99.90